Main page
METAR-TAF:

METAR-TAF

Airports :

Wick Airport

Wick, Scotland

latitude: 58-27N, longitude: 003-05W, elevation: 39 m

Current weather observation

The report was made 27 minutes ago, at 16:20 UTC
Wind 16 kt from the East
Temperature 7°C
Humidity 66%
Pressure 1026 hPa
Visibility 10 km or more
light rain

METAR: EGPC 201620Z AUTO 09016KT 9999 -RA SCT031/// BKN037/// 07/01 Q1026

Time: 16:47 (16:47 UTC)

Forecast

The report was made 2 hours and 48 minutes ago, at 13:59 UTC
Forecast valid from 20 at 15 UTC to 20 at 24 UTC
Wind 17 kt from the East
Visibility 10 km or more
Scattered clouds at a height of 3000 ft
Probability 30% :
Temporary
from 20 at 15 UTC to 20 at 24 UTC
Wind 20 kt from the East with gusts up to 30 kt
Visibility: 7000 m
rain showers

TAF: EGPC 201359Z 2015/2024 09017KT 9999 SCT030 PROB30 TEMPO 2015/2024 10020G30KT 7000 SHRA

Weather observations and forecasts of more than 4000 airports (METAR and TAF reports).

The available stations are represented by yellow and red dots on the map.

Hover mouse over dot to see the name of the station.

Then click to see weather observations and forecasts.

To change the map : click on the green buttons with a black cross to zoom in, on the green button with a dash to zoom out, or on the green arrows for adjacent maps.


METAR-TAF: